Time,TemperatureF,DewpointF,PressureIn,WindDirection,WindDirectionDegrees,WindSpeedMPH,WindSpeedGustMPH,Humidity,HourlyPrecipIn,Conditions,Clouds,dailyrainin,SolarRadiationWatts/m^2,SoftwareType,DateUTC
2013-12-05 00:02:00,26.0,21.0,-100.00,NE,47,2.0,3.0,82,0.00,,,0.01,0.000000,,2013-12-05 08:02:00,
2013-12-05 00:11:00,26.0,21.0,-100.00,NE,47,2.0,3.0,82,0.00,,,0.01,0.000000,,2013-12-05 08:11:00,
2013-12-05 00:42:00,26.0,22.0,-100.00,NE,36,2.0,4.0,85,0.00,,,0.01,0.000000,,2013-12-05 08:42:00,
2013-12-05 00:53:00,26.0,22.0,-100.00,NE,36,2.0,4.0,85,0.00,,,0.01,0.000000,,2013-12-05 08:53:00,
2013-12-05 01:02:00,26.0,22.0,-100.00,NE,36,2.0,4.0,85,0.00,,,0.01,0.000000,,2013-12-05 09:02:00,
2013-12-05 01:11:00,26.0,22.0,-100.00,NE,36,2.0,4.0,85,0.00,,,0.01,0.000000,,2013-12-05 09:11:00,
2013-12-05 01:43:00,25.0,21.0,-100.00,NE,46,3.0,4.0,85,0.00,,,0.01,0.000000,,2013-12-05 09:43:00,
2013-12-05 01:54:00,25.0,21.0,-100.00,NE,46,3.0,4.0,85,0.00,,,0.01,0.000000,,2013-12-05 09:54:00,
2013-12-05 02:03:00,25.0,21.0,-100.00,NE,46,3.0,4.0,85,0.00,,,0.01,0.000000,,2013-12-05 10:03:00,
2013-12-05 02:12:00,25.0,21.0,-100.00,NE,46,3.0,4.0,85,0.00,,,0.01,0.000000,,2013-12-05 10:12:00,
2013-12-05 02:43:00,25.0,21.0,-100.00,NE,41,3.0,4.0,85,0.00,,,0.01,0.000000,,2013-12-05 10:43:00,
2013-12-05 02:53:00,25.0,21.0,-100.00,NE,41,3.0,4.0,85,0.00,,,0.01,0.000000,,2013-12-05 10:53:00,
2013-12-05 03:02:00,25.0,21.0,-100.00,NE,41,3.0,4.0,85,0.00,,,0.01,0.000000,,2013-12-05 11:02:00,
2013-12-05 03:12:00,25.0,21.0,-100.00,NE,41,3.0,4.0,85,0.00,,,0.01,0.000000,,2013-12-05 11:12:00,
2013-12-05 03:42:00,24.0,21.0,-100.00,NE,40,2.0,3.0,88,0.00,,,0.01,0.000000,,2013-12-05 11:42:00,
2013-12-05 03:53:00,24.0,21.0,-100.00,NE,40,2.0,3.0,88,0.00,,,0.01,0.000000,,2013-12-05 11:53:00,
2013-12-05 04:02:00,24.0,21.0,-100.00,NE,40,2.0,3.0,88,0.00,,,0.01,0.000000,,2013-12-05 12:02:00,
2013-12-05 04:11:00,24.0,21.0,-100.00,NE,40,2.0,3.0,88,0.00,,,0.01,0.000000,,2013-12-05 12:11:00,
2013-12-05 04:42:00,24.0,21.0,-100.00,NE,43,3.0,4.0,89,0.00,,,0.01,0.000000,,2013-12-05 12:42:00,
2013-12-05 04:52:00,24.0,21.0,-100.00,NE,43,3.0,4.0,89,0.00,,,0.01,0.000000,,2013-12-05 12:52:00,
2013-12-05 05:02:00,24.0,21.0,-100.00,NE,43,3.0,4.0,89,0.00,,,0.01,0.000000,,2013-12-05 13:02:00,
2013-12-05 05:11:00,24.0,21.0,-100.00,NE,43,3.0,4.0,89,0.00,,,0.01,0.000000,,2013-12-05 13:11:00,
2013-12-05 05:42:00,24.0,21.0,-100.00,NE,47,2.0,3.0,89,0.00,,,0.01,0.000000,,2013-12-05 13:42:00,
2013-12-05 05:52:00,24.0,21.0,-100.00,NE,47,2.0,3.0,89,0.00,,,0.01,0.000000,,2013-12-05 13:52:00,
2013-12-05 06:02:00,24.0,21.0,-100.00,NE,47,2.0,3.0,89,0.00,,,0.01,0.000000,,2013-12-05 14:02:00,
2013-12-05 06:11:00,24.0,21.0,-100.00,NE,47,2.0,3.0,89,0.00,,,0.01,0.000000,,2013-12-05 14:11:00,
2013-12-05 06:42:00,22.0,20.0,-100.00,NNW,347,1.0,3.0,93,0.00,,,0.01,0.000000,,2013-12-05 14:42:00,
2013-12-05 06:52:00,22.0,20.0,-100.00,NNW,347,1.0,3.0,93,0.00,,,0.01,0.000000,,2013-12-05 14:52:00,
2013-12-05 07:02:00,22.0,20.0,-100.00,NNW,347,1.0,3.0,93,0.00,,,0.01,0.000000,,2013-12-05 15:02:00,
2013-12-05 07:11:00,22.0,20.0,-100.00,NNW,347,1.0,3.0,93,0.00,,,0.01,0.000000,,2013-12-05 15:11:00,
2013-12-05 07:13:00,22.0,21.0,-100.00,NNE,31,1.0,3.0,94,0.00,,,0.01,0.000000,,2013-12-05 15:13:00,
2013-12-05 07:43:00,22.0,21.0,-100.00,NNE,31,1.0,3.0,94,0.00,,,0.01,0.000000,,2013-12-05 15:43:00,
2013-12-05 07:54:00,22.0,21.0,-100.00,NNE,31,1.0,3.0,94,0.00,,,0.01,0.000000,,2013-12-05 15:54:00,
2013-12-05 08:04:00,22.0,21.0,-100.00,NNE,31,1.0,3.0,94,0.00,,,0.01,0.000000,,2013-12-05 16:04:00,
2013-12-05 08:43:00,23.0,22.0,-100.00,NE,48,2.0,4.0,94,0.00,,,-99.99,9.000000,,2013-12-05 16:43:00,
2013-12-05 08:53:00,23.0,22.0,-100.00,NE,48,2.0,4.0,94,0.00,,,-99.99,9.000000,,2013-12-05 16:53:00,
2013-12-05 09:02:00,23.0,22.0,-100.00,NE,48,2.0,4.0,94,0.00,,,-99.99,9.000000,,2013-12-05 17:02:00,
2013-12-05 09:12:00,23.0,22.0,-100.00,NE,48,2.0,4.0,94,0.00,,,-99.99,9.000000,,2013-12-05 17:12:00,
2013-12-05 09:42:00,24.0,23.0,-100.00,East,79,1.0,2.0,94,0.00,,,0.01,27.000000,,2013-12-05 17:42:00,
2013-12-05 09:52:00,24.0,23.0,-100.00,East,79,1.0,2.0,94,0.00,,,0.01,27.000000,,2013-12-05 17:52:00,
2013-12-05 10:02:00,24.0,23.0,-100.00,East,79,1.0,2.0,94,0.00,,,0.01,27.000000,,2013-12-05 18:02:00,
2013-12-05 10:12:00,24.0,23.0,-100.00,East,79,1.0,2.0,94,0.00,,,0.01,27.000000,,2013-12-05 18:12:00,
2013-12-05 10:42:00,29.0,26.0,-100.00,NE,44,2.0,4.0,88,0.00,,,0.01,253.000000,,2013-12-05 18:42:00,
2013-12-05 10:52:00,29.0,26.0,-100.00,NE,44,2.0,4.0,88,0.00,,,0.01,253.000000,,2013-12-05 18:52:00,
2013-12-05 11:02:00,29.0,26.0,-100.00,NE,44,2.0,4.0,88,0.00,,,0.01,253.000000,,2013-12-05 19:02:00,
2013-12-05 11:11:00,29.0,26.0,-100.00,NE,44,2.0,4.0,88,0.00,,,0.01,253.000000,,2013-12-05 19:11:00,
2013-12-05 11:42:00,35.0,26.0,-100.00,ESE,107,1.0,3.0,68,0.00,,,0.00,431.000000,,2013-12-05 19:42:00,
2013-12-05 11:52:00,35.0,26.0,-100.00,ESE,107,1.0,3.0,68,0.00,,,0.00,431.000000,,2013-12-05 19:52:00,
2013-12-05 12:01:00,35.0,26.0,-100.00,ESE,107,1.0,3.0,68,0.00,,,0.00,431.000000,,2013-12-05 20:01:00,
2013-12-05 12:11:00,35.0,26.0,-100.00,ESE,107,1.0,3.0,68,0.00,,,0.00,431.000000,,2013-12-05 20:11:00,
2013-12-05 12:42:00,36.0,25.0,-100.00,NNE,33,2.0,4.0,65,0.00,,,0.00,470.000000,,2013-12-05 20:42:00,
2013-12-05 12:52:00,36.0,25.0,-100.00,NNE,33,2.0,4.0,65,0.00,,,0.00,470.000000,,2013-12-05 20:52:00,
2013-12-05 13:02:00,36.0,25.0,-100.00,NNE,33,2.0,4.0,65,0.00,,,0.00,470.000000,,2013-12-05 21:02:00,
2013-12-05 13:12:00,36.0,25.0,-100.00,NNE,33,2.0,4.0,65,0.00,,,0.00,470.000000,,2013-12-05 21:12:00,
2013-12-05 13:44:00,40.0,28.0,-100.00,North,3,2.0,4.0,61,0.00,,,0.00,455.000000,,2013-12-05 21:44:00,
2013-12-05 13:53:00,40.0,28.0,-100.00,North,3,2.0,4.0,61,0.00,,,0.00,455.000000,,2013-12-05 21:53:00,
2013-12-05 14:03:00,40.0,28.0,-100.00,North,3,2.0,4.0,61,0.00,,,0.00,455.000000,,2013-12-05 22:03:00,
2013-12-05 14:12:00,40.0,28.0,-100.00,North,3,2.0,4.0,61,0.00,,,0.00,455.000000,,2013-12-05 22:12:00,
2013-12-05 14:42:00,43.0,27.0,-100.00,ESE,117,2.0,3.0,52,0.00,,,0.00,367.000000,,2013-12-05 22:42:00,
2013-12-05 14:52:00,43.0,27.0,-100.00,ESE,117,2.0,3.0,52,0.00,,,0.00,367.000000,,2013-12-05 22:52:00,
2013-12-05 15:02:00,43.0,27.0,-100.00,ESE,117,2.0,3.0,52,0.00,,,0.00,367.000000,,2013-12-05 23:02:00,
2013-12-05 15:12:00,43.0,27.0,-100.00,ESE,117,2.0,3.0,52,0.00,,,0.00,367.000000,,2013-12-05 23:12:00,
2013-12-05 15:43:00,41.0,23.0,-100.00,NE,47,2.0,3.0,48,0.00,,,0.00,233.000000,,2013-12-05 23:43:00,
2013-12-05 15:53:00,41.0,23.0,-100.00,NE,47,2.0,3.0,48,0.00,,,0.00,233.000000,,2013-12-05 23:53:00,
2013-12-05 16:02:00,41.0,23.0,-100.00,NE,47,2.0,3.0,48,0.00,,,0.00,233.000000,,2013-12-06 00:02:00,
2013-12-05 16:11:00,41.0,23.0,-100.00,NE,47,2.0,3.0,48,0.00,,,0.00,233.000000,,2013-12-06 00:11:00,
2013-12-05 16:42:00,36.0,25.0,-100.00,NE,35,2.0,3.0,64,0.00,,,0.00,110.000000,,2013-12-06 00:42:00,
2013-12-05 16:52:00,36.0,25.0,-100.00,NE,35,2.0,3.0,64,0.00,,,0.00,110.000000,,2013-12-06 00:52:00,
2013-12-05 17:01:00,36.0,25.0,-100.00,NE,35,2.0,3.0,64,0.00,,,0.00,110.000000,,2013-12-06 01:01:00,
2013-12-05 17:11:00,36.0,25.0,-100.00,NE,35,2.0,3.0,64,0.00,,,0.00,110.000000,,2013-12-06 01:11:00,
2013-12-05 17:42:00,34.0,22.0,-100.00,North,1,2.0,4.0,62,0.00,,,0.00,6.000000,,2013-12-06 01:42:00,
2013-12-05 17:52:00,34.0,22.0,-100.00,North,1,2.0,4.0,62,0.00,,,0.00,6.000000,,2013-12-06 01:52:00,
2013-12-05 18:01:00,34.0,22.0,-100.00,North,1,2.0,4.0,62,0.00,,,0.00,6.000000,,2013-12-06 02:01:00,
2013-12-05 18:11:00,34.0,22.0,-100.00,North,1,2.0,4.0,62,0.00,,,0.00,6.000000,,2013-12-06 02:11:00,
2013-12-05 18:42:00,32.0,21.0,-100.00,NE,56,2.0,3.0,63,0.00,,,-99.99,0.000000,,2013-12-06 02:42:00,
2013-12-05 18:52:00,32.0,21.0,-100.00,NE,56,2.0,3.0,63,0.00,,,-99.99,0.000000,,2013-12-06 02:52:00,
2013-12-05 19:02:00,32.0,21.0,-100.00,NE,56,2.0,3.0,63,0.00,,,-99.99,0.000000,,2013-12-06 03:02:00,
2013-12-05 19:11:00,32.0,21.0,-100.00,NE,56,2.0,3.0,63,0.00,,,-99.99,0.000000,,2013-12-06 03:11:00,
2013-12-05 19:43:00,33.0,24.0,-100.00,NW,318,0.0,3.0,69,0.00,,,0.00,0.000000,,2013-12-06 03:43:00,
2013-12-05 19:53:00,33.0,24.0,-100.00,NW,318,0.0,3.0,69,0.00,,,0.00,0.000000,,2013-12-06 03:53:00,
2013-12-05 20:03:00,33.0,24.0,-100.00,NW,318,0.0,3.0,69,0.00,,,0.00,0.000000,,2013-12-06 04:03:00,
2013-12-05 20:12:00,33.0,24.0,-100.00,NW,318,0.0,3.0,69,0.00,,,0.00,0.000000,,2013-12-06 04:12:00,
2013-12-05 20:43:00,33.0,22.0,-100.00,SE,145,2.0,4.0,64,0.00,,,0.00,0.000000,,2013-12-06 04:43:00,
2013-12-05 20:53:00,33.0,22.0,-100.00,SE,145,2.0,4.0,64,0.00,,,0.00,0.000000,,2013-12-06 04:53:00,
2013-12-05 21:02:00,33.0,22.0,-100.00,SE,145,2.0,4.0,64,0.00,,,0.00,0.000000,,2013-12-06 05:02:00,
2013-12-05 21:12:00,33.0,22.0,-100.00,SE,145,2.0,4.0,64,0.00,,,0.00,0.000000,,2013-12-06 05:12:00,
2013-12-05 21:43:00,33.0,24.0,-100.00,SE,136,2.0,3.0,68,0.00,,,0.00,0.000000,,2013-12-06 05:43:00,
2013-12-05 21:53:00,33.0,24.0,-100.00,SE,136,2.0,3.0,68,0.00,,,0.00,0.000000,,2013-12-06 05:53:00,
2013-12-05 22:02:00,33.0,24.0,-100.00,SE,136,2.0,3.0,68,0.00,,,0.00,0.000000,,2013-12-06 06:02:00,
2013-12-05 22:12:00,33.0,24.0,-100.00,SE,136,2.0,3.0,68,0.00,,,0.00,0.000000,,2013-12-06 06:12:00,
2013-12-05 22:42:00,32.0,26.0,-100.00,SE,143,2.0,4.0,78,0.00,,,0.00,0.000000,,2013-12-06 06:42:00,
2013-12-05 22:52:00,32.0,26.0,-100.00,SE,143,2.0,4.0,78,0.00,,,0.00,0.000000,,2013-12-06 06:52:00,
2013-12-05 23:01:00,32.0,26.0,-100.00,SE,143,2.0,4.0,78,0.00,,,0.00,0.000000,,2013-12-06 07:01:00,
2013-12-05 23:11:00,32.0,26.0,-100.00,SE,143,2.0,4.0,78,0.00,,,0.00,0.000000,,2013-12-06 07:11:00,
2013-12-05 23:42:00,32.0,25.0,-100.00,SE,124,2.0,4.0,76,0.00,,,0.00,0.000000,,2013-12-06 07:42:00,
2013-12-05 23:52:00,32.0,25.0,-100.00,SE,124,2.0,4.0,76,0.00,,,0.00,0.000000,,2013-12-06 07:52:00,